sensor_id;sensor_type;location;lat;lon;timestamp;pressure;altitude;pressure_sealevel;temperature;humidity
70053;BME280;57398;52.032;4.376;2022-11-20T00:00:41;101622.66;;;-3.61;nan
70053;BME280;57398;52.032;4.376;2022-11-20T00:03:09;101611.16;;;-3.67;nan
70053;BME280;57398;52.032;4.376;2022-11-20T00:05:37;101600.22;;;-3.67;nan
70053;BME280;57398;52.032;4.376;2022-11-20T00:08:04;101617.97;;;-3.67;nan
70053;BME280;57398;52.032;4.376;2022-11-20T00:10:35;101605.59;;;-3.72;nan
70053;BME280;57398;52.032;4.376;2022-11-20T00:13:03;101596.69;;;-3.77;nan
70053;BME280;57398;52.032;4.376;2022-11-20T00:15:31;101593.31;;;-3.78;nan
70053;BME280;57398;52.032;4.376;2022-11-20T00:17:59;101600.63;;;-3.73;nan
70053;BME280;57398;52.032;4.376;2022-11-20T00:22:55;101596.09;;;-3.81;nan
70053;BME280;57398;52.032;4.376;2022-11-20T00:25:22;101605.34;;;-3.80;nan
70053;BME280;57398;52.032;4.376;2022-11-20T00:27:51;101606.78;;;-3.89;nan
70053;BME280;57398;52.032;4.376;2022-11-20T00:30:19;101601.78;;;-3.90;nan
70053;BME280;57398;52.032;4.376;2022-11-20T00:32:47;101597.75;;;-3.93;nan
70053;BME280;57398;52.032;4.376;2022-11-20T00:35:14;101592.56;;;-3.91;nan
70053;BME280;57398;52.032;4.376;2022-11-20T00:37:42;101584.44;;;-3.96;nan
70053;BME280;57398;52.032;4.376;2022-11-20T00:40:11;101589.72;;;-4.00;nan
70053;BME280;57398;52.032;4.376;2022-11-20T00:42:38;101590.22;;;-3.94;nan
70053;BME280;57398;52.032;4.376;2022-11-20T00:45:08;101595.31;;;-3.94;nan
70053;BME280;57398;52.032;4.376;2022-11-20T00:47:35;101599.66;;;-3.96;nan
70053;BME280;57398;52.032;4.376;2022-11-20T00:50:04;101596.31;;;-3.97;nan
70053;BME280;57398;52.032;4.376;2022-11-20T00:52:32;101593.28;;;-4.02;nan
70053;BME280;57398;52.032;4.376;2022-11-20T00:54:59;101595.03;;;-4.03;nan
70053;BME280;57398;52.032;4.376;2022-11-20T00:57:27;101586.91;;;-4.08;nan
70053;BME280;57398;52.032;4.376;2022-11-20T00:59:55;101594.50;;;-4.08;nan
70053;BME280;57398;52.032;4.376;2022-11-20T01:02:24;101601.22;;;-4.07;nan
70053;BME280;57398;52.032;4.376;2022-11-20T01:04:51;101599.16;;;-4.02;nan
70053;BME280;57398;52.032;4.376;2022-11-20T01:07:19;101595.22;;;-4.06;nan
70053;BME280;57398;52.032;4.376;2022-11-20T01:09:47;101577.88;;;-4.12;nan
70053;BME280;57398;52.032;4.376;2022-11-20T01:12:14;101564.19;;;-4.09;nan
70053;BME280;57398;52.032;4.376;2022-11-20T01:14:42;101569.75;;;-4.04;nan
70053;BME280;57398;52.032;4.376;2022-11-20T01:17:10;101579.19;;;-4.06;nan
70053;BME280;57398;52.032;4.376;2022-11-20T01:19:39;101579.00;;;-4.16;nan
70053;BME280;57398;52.032;4.376;2022-11-20T01:22:07;101587.53;;;-4.17;nan
70053;BME280;57398;52.032;4.376;2022-11-20T01:24:34;101595.75;;;-4.13;nan
70053;BME280;57398;52.032;4.376;2022-11-20T01:27:02;101592.91;;;-4.09;nan
70053;BME280;57398;52.032;4.376;2022-11-20T01:29:30;101600.19;;;-4.04;nan
70053;BME280;57398;52.032;4.376;2022-11-20T01:34:25;101572.19;;;-4.15;nan
70053;BME280;57398;52.032;4.376;2022-11-20T01:36:54;101587.81;;;-4.22;nan
70053;BME280;57398;52.032;4.376;2022-11-20T01:41:52;101578.59;;;-4.35;nan
70053;BME280;57398;52.032;4.376;2022-11-20T01:44:47;101573.66;;;-4.37;nan
70053;BME280;57398;52.032;4.376;2022-11-20T01:47:17;101578.22;;;-4.42;nan
70053;BME280;57398;52.032;4.376;2022-11-20T01:49:50;101574.88;;;-4.43;nan
70053;BME280;57398;52.032;4.376;2022-11-20T01:52:23;101572.53;;;-4.46;nan
70053;BME280;57398;52.032;4.376;2022-11-20T01:54:54;101582.47;;;-4.43;nan
70053;BME280;57398;52.032;4.376;2022-11-20T01:57:25;101578.31;;;-4.44;nan
70053;BME280;57398;52.032;4.376;2022-11-20T02:00:00;101576.28;;;-4.51;nan
70053;BME280;57398;52.032;4.376;2022-11-20T02:02:29;101571.41;;;-4.54;nan
70053;BME280;57398;52.032;4.376;2022-11-20T02:07:27;101578.72;;;-4.50;nan
70053;BME280;57398;52.032;4.376;2022-11-20T02:09:55;101581.03;;;-4.47;nan
70053;BME280;57398;52.032;4.376;2022-11-20T02:12:24;101580.13;;;-4.58;nan
70053;BME280;57398;52.032;4.376;2022-11-20T02:15:14;101573.03;;;-4.66;nan
70053;BME280;57398;52.032;4.376;2022-11-20T02:17:42;101574.66;;;-4.65;nan
70053;BME280;57398;52.032;4.376;2022-11-20T02:20:10;101567.97;;;-4.66;nan
70053;BME280;57398;52.032;4.376;2022-11-20T02:22:47;101569.72;;;-4.67;nan
70053;BME280;57398;52.032;4.376;2022-11-20T02:25:19;101570.31;;;-4.63;nan
70053;BME280;57398;52.032;4.376;2022-11-20T02:27:47;101563.53;;;-4.63;nan
70053;BME280;57398;52.032;4.376;2022-11-20T02:30:15;101563.00;;;-4.68;nan
70053;BME280;57398;52.032;4.376;2022-11-20T02:32:43;101556.72;;;-4.75;nan
70053;BME280;57398;52.032;4.376;2022-11-20T02:38:14;101554.28;;;-4.64;nan
70053;BME280;57398;52.032;4.376;2022-11-20T02:40:44;101541.53;;;-4.62;nan
70053;BME280;57398;52.032;4.376;2022-11-20T02:43:11;101544.84;;;-4.61;nan
70053;BME280;57398;52.032;4.376;2022-11-20T02:50:36;101546.28;;;-4.70;nan
70053;BME280;57398;52.032;4.376;2022-11-20T02:55:32;101540.06;;;-4.79;nan
70053;BME280;57398;52.032;4.376;2022-11-20T02:58:01;101540.91;;;-4.78;nan
70053;BME280;57398;52.032;4.376;2022-11-20T03:00:29;101538.25;;;-4.77;nan
70053;BME280;57398;52.032;4.376;2022-11-20T03:05:24;101530.25;;;-4.71;nan
70053;BME280;57398;52.032;4.376;2022-11-20T03:07:52;101516.56;;;-4.68;nan
70053;BME280;57398;52.032;4.376;2022-11-20T03:10:19;101514.25;;;-4.71;nan
70053;BME280;57398;52.032;4.376;2022-11-20T03:12:47;101534.91;;;-4.77;nan
70053;BME280;57398;52.032;4.376;2022-11-20T03:15:21;101527.94;;;-4.74;nan
70053;BME280;57398;52.032;4.376;2022-11-20T03:17:48;101528.13;;;-4.64;nan
70053;BME280;57398;52.032;4.376;2022-11-20T03:20:16;101519.31;;;-4.71;nan
70053;BME280;57398;52.032;4.376;2022-11-20T03:25:11;101512.72;;;-4.74;nan
70053;BME280;57398;52.032;4.376;2022-11-20T03:27:39;101504.72;;;-4.80;nan
70053;BME280;57398;52.032;4.376;2022-11-20T03:30:08;101501.47;;;-4.82;nan
70053;BME280;57398;52.032;4.376;2022-11-20T03:32:37;101516.19;;;-4.88;nan
70053;BME280;57398;52.032;4.376;2022-11-20T03:35:05;101502.06;;;-4.92;nan
70053;BME280;57398;52.032;4.376;2022-11-20T03:40:01;101511.09;;;-4.88;nan
70053;BME280;57398;52.032;4.376;2022-11-20T03:42:28;101506.72;;;-4.86;nan
70053;BME280;57398;52.032;4.376;2022-11-20T03:45:15;101502.06;;;-4.92;nan
70053;BME280;57398;52.032;4.376;2022-11-20T03:47:45;101499.41;;;-4.90;nan
70053;BME280;57398;52.032;4.376;2022-11-20T03:50:13;101498.91;;;-4.95;nan
70053;BME280;57398;52.032;4.376;2022-11-20T03:52:41;101488.69;;;-4.94;nan
70053;BME280;57398;52.032;4.376;2022-11-20T03:55:09;101484.34;;;-4.92;nan
70053;BME280;57398;52.032;4.376;2022-11-20T03:57:37;101466.88;;;-4.84;nan
70053;BME280;57398;52.032;4.376;2022-11-20T04:00:05;101469.03;;;-4.77;nan
70053;BME280;57398;52.032;4.376;2022-11-20T04:05:02;101458.38;;;-4.82;nan
70053;BME280;57398;52.032;4.376;2022-11-20T04:07:30;101457.19;;;-4.90;nan
70053;BME280;57398;52.032;4.376;2022-11-20T04:09:58;101460.59;;;-4.91;nan
70053;BME280;57398;52.032;4.376;2022-11-20T04:12:26;101448.66;;;-4.89;nan
70053;BME280;57398;52.032;4.376;2022-11-20T04:17:21;101441.84;;;-4.75;nan
70053;BME280;57398;52.032;4.376;2022-11-20T04:19:48;101433.31;;;-4.74;nan
70053;BME280;57398;52.032;4.376;2022-11-20T04:22:17;101440.03;;;-4.73;nan
70053;BME280;57398;52.032;4.376;2022-11-20T04:24:45;101435.06;;;-4.75;nan
70053;BME280;57398;52.032;4.376;2022-11-20T04:27:13;101449.06;;;-4.69;nan
70053;BME280;57398;52.032;4.376;2022-11-20T04:29:40;101454.00;;;-4.68;nan
70053;BME280;57398;52.032;4.376;2022-11-20T04:32:08;101451.38;;;-4.79;nan
70053;BME280;57398;52.032;4.376;2022-11-20T04:34:36;101447.31;;;-4.81;nan
70053;BME280;57398;52.032;4.376;2022-11-20T04:37:03;101465.59;;;-4.76;nan
70053;BME280;57398;52.032;4.376;2022-11-20T04:39:32;101471.03;;;-4.70;nan
70053;BME280;57398;52.032;4.376;2022-11-20T04:42:00;101470.53;;;-4.62;nan
70053;BME280;57398;52.032;4.376;2022-11-20T04:44:45;101446.00;;;-4.61;nan
70053;BME280;57398;52.032;4.376;2022-11-20T04:47:13;101454.69;;;-4.53;nan
70053;BME280;57398;52.032;4.376;2022-11-20T04:49:40;101443.13;;;-4.57;nan
70053;BME280;57398;52.032;4.376;2022-11-20T04:52:08;101447.09;;;-4.66;nan
70053;BME280;57398;52.032;4.376;2022-11-20T04:54:37;101449.06;;;-4.69;nan
70053;BME280;57398;52.032;4.376;2022-11-20T04:57:05;101455.03;;;-4.70;nan
70053;BME280;57398;52.032;4.376;2022-11-20T04:59:39;101450.97;;;-4.73;nan
70053;BME280;57398;52.032;4.376;2022-11-20T05:02:07;101457.06;;;-4.75;nan
70053;BME280;57398;52.032;4.376;2022-11-20T05:04:35;101437.00;;;-4.78;nan
70053;BME280;57398;52.032;4.376;2022-11-20T05:07:02;101453.09;;;-4.79;nan
70053;BME280;57398;52.032;4.376;2022-11-20T05:09:30;101464.47;;;-4.85;nan
70053;BME280;57398;52.032;4.376;2022-11-20T05:11:59;101454.84;;;-4.93;nan
70053;BME280;57398;52.032;4.376;2022-11-20T05:14:27;101460.81;;;-4.94;nan
70053;BME280;57398;52.032;4.376;2022-11-20T05:16:55;101453.44;;;-4.97;nan
70053;BME280;57398;52.032;4.376;2022-11-20T05:19:22;101448.66;;;-4.89;nan
70053;BME280;57398;52.032;4.376;2022-11-20T05:21:50;101457.19;;;-4.90;nan
70053;BME280;57398;52.032;4.376;2022-11-20T05:24:18;101450.28;;;-4.88;nan
70053;BME280;57398;52.032;4.376;2022-11-20T05:26:45;101455.34;;;-4.88;nan
70053;BME280;57398;52.032;4.376;2022-11-20T05:29:14;101455.53;;;-4.91;nan
70053;BME280;57398;52.032;4.376;2022-11-20T05:31:42;101446.63;;;-4.96;nan
70053;BME280;57398;52.032;4.376;2022-11-20T05:34:10;101441.75;;;-4.87;nan
70053;BME280;57398;52.032;4.376;2022-11-20T05:36:37;101438.22;;;-4.84;nan
70053;BME280;57398;52.032;4.376;2022-11-20T05:39:05;101446.75;;;-4.85;nan
70053;BME280;57398;52.032;4.376;2022-11-20T05:41:33;101440.56;;;-4.81;nan
70053;BME280;57398;52.032;4.376;2022-11-20T05:44:00;101422.69;;;-4.79;nan
70053;BME280;57398;52.032;4.376;2022-11-20T05:46:29;101421.66;;;-4.77;nan
70053;BME280;57398;52.032;4.376;2022-11-20T05:48:57;101418.03;;;-4.73;nan
70053;BME280;57398;52.032;4.376;2022-11-20T05:51:25;101417.00;;;-4.70;nan
70053;BME280;57398;52.032;4.376;2022-11-20T05:53:56;101411.31;;;-4.61;nan
70053;BME280;57398;52.032;4.376;2022-11-20T05:56:23;101403.53;;;-4.47;nan
70053;BME280;57398;52.032;4.376;2022-11-20T05:58:51;101406.09;;;-4.47;nan
70053;BME280;57398;52.032;4.376;2022-11-20T06:01:21;101400.34;;;-4.49;nan
70053;BME280;57398;52.032;4.376;2022-11-20T06:03:50;101396.84;;;-4.35;nan
70053;BME280;57398;52.032;4.376;2022-11-20T06:08:46;101402.63;;;-4.33;nan
70053;BME280;57398;52.032;4.376;2022-11-20T06:11:14;101393.47;;;-4.35;nan
70053;BME280;57398;52.032;4.376;2022-11-20T06:13:42;101394.41;;;-4.36;nan
70053;BME280;57398;52.032;4.376;2022-11-20T06:16:11;101396.72;;;-4.33;nan
70053;BME280;57398;52.032;4.376;2022-11-20T06:21:11;101378.97;;;-4.33;nan
70053;BME280;57398;52.032;4.376;2022-11-20T06:23:39;101382.00;;;-4.28;nan
70053;BME280;57398;52.032;4.376;2022-11-20T06:26:08;101378.16;;;-4.34;nan
70053;BME280;57398;52.032;4.376;2022-11-20T06:28:36;101377.13;;;-4.31;nan
70053;BME280;57398;52.032;4.376;2022-11-20T06:31:06;101390.50;;;-4.29;nan
70053;BME280;57398;52.032;4.376;2022-11-20T06:33:33;101390.66;;;-4.19;nan
70053;BME280;57398;52.032;4.376;2022-11-20T06:38:38;101385.31;;;-4.04;nan
70053;BME280;57398;52.032;4.376;2022-11-20T06:41:06;101380.03;;;-4.01;nan
70053;BME280;57398;52.032;4.376;2022-11-20T06:43:34;101389.75;;;-3.94;nan
70053;BME280;57398;52.032;4.376;2022-11-20T06:46:02;101389.53;;;-3.91;nan
70053;BME280;57398;52.032;4.376;2022-11-20T06:48:29;101394.53;;;-3.79;nan
70053;BME280;57398;52.032;4.376;2022-11-20T06:50:58;101385.34;;;-3.68;nan
70053;BME280;57398;52.032;4.376;2022-11-20T06:53:26;101387.06;;;-3.58;nan
70053;BME280;57398;52.032;4.376;2022-11-20T06:55:56;101394.25;;;-3.51;nan
70053;BME280;57398;52.032;4.376;2022-11-20T07:03:21;101376.16;;;-3.35;nan
70053;BME280;57398;52.032;4.376;2022-11-20T07:05:48;101377.31;;;-3.28;nan
70053;BME280;57398;52.032;4.376;2022-11-20T07:08:16;101368.19;;;-3.20;nan
70053;BME280;57398;52.032;4.376;2022-11-20T07:13:12;101374.88;;;-3.07;nan
70053;BME280;57398;52.032;4.376;2022-11-20T07:15:40;101375.38;;;-3.02;nan
70053;BME280;57398;52.032;4.376;2022-11-20T07:18:08;101379.25;;;-2.98;nan
70053;BME280;57398;52.032;4.376;2022-11-20T07:20:35;101368.28;;;-2.99;nan
70053;BME280;57398;52.032;4.376;2022-11-20T07:23:03;101375.56;;;-2.94;nan
70053;BME280;57398;52.032;4.376;2022-11-20T07:25:30;101370.03;;;-2.88;nan
70053;BME280;57398;52.032;4.376;2022-11-20T07:27:59;101296.25;;;-3.31;nan
70053;BME280;57398;52.032;4.376;2022-11-20T07:30:29;101386.53;;;-2.71;nan
70053;BME280;57398;52.032;4.376;2022-11-20T07:35:25;101376.59;;;-2.63;nan
70053;BME280;57398;52.032;4.376;2022-11-20T07:37:53;101381.66;;;-2.51;nan
70053;BME280;57398;52.032;4.376;2022-11-20T07:40:20;101382.91;;;-2.46;nan
70053;BME280;57398;52.032;4.376;2022-11-20T07:42:48;101388.06;;;-2.36;nan
70053;BME280;57398;52.032;4.376;2022-11-20T07:45:16;101380.22;;;-2.33;nan
70053;BME280;57398;52.032;4.376;2022-11-20T07:47:45;101385.28;;;-2.22;nan
70053;BME280;57398;52.032;4.376;2022-11-20T07:50:14;101392.53;;;-2.17;nan
70053;BME280;57398;52.032;4.376;2022-11-20T07:52:41;101382.09;;;-2.14;nan
70053;BME280;57398;52.032;4.376;2022-11-20T07:55:10;101389.69;;;-2.03;nan
70053;BME280;57398;52.032;4.376;2022-11-20T07:57:38;101377.56;;;-1.99;nan
70053;BME280;57398;52.032;4.376;2022-11-20T08:00:07;101367.22;;;-1.98;nan
70053;BME280;57398;52.032;4.376;2022-11-20T08:02:36;101367.53;;;-1.91;nan
70053;BME280;57398;52.032;4.376;2022-11-20T08:05:08;101360.84;;;-1.92;nan
70053;BME280;57398;52.032;4.376;2022-11-20T08:07:37;101372.94;;;-1.84;nan
70053;BME280;57398;52.032;4.376;2022-11-20T08:10:06;101369.47;;;-1.83;nan
70053;BME280;57398;52.032;4.376;2022-11-20T08:15:19;101367.84;;;-1.63;nan
70053;BME280;57398;52.032;4.376;2022-11-20T08:17:47;101358.22;;;-1.60;nan
70053;BME280;57398;52.032;4.376;2022-11-20T08:20:36;101362.94;;;-1.55;nan
70053;BME280;57398;52.032;4.376;2022-11-20T08:23:05;101363.25;;;-1.49;nan
70053;BME280;57398;52.032;4.376;2022-11-20T08:25:34;101373.06;;;-1.44;nan
70053;BME280;57398;52.032;4.376;2022-11-20T08:28:04;101365.56;;;-1.36;nan
70053;BME280;57398;52.032;4.376;2022-11-20T08:30:44;101351.66;;;-1.32;nan
70053;BME280;57398;52.032;4.376;2022-11-20T08:33:12;101362.94;;;-1.24;nan
70053;BME280;57398;52.032;4.376;2022-11-20T08:35:41;101355.34;;;-1.15;nan
70053;BME280;57398;52.032;4.376;2022-11-20T08:40:36;101358.75;;;-1.04;nan
70053;BME280;57398;52.032;4.376;2022-11-20T08:43:04;101359.72;;;-0.96;nan
70053;BME280;57398;52.032;4.376;2022-11-20T08:45:32;101379.72;;;-0.91;nan
70053;BME280;57398;52.032;4.376;2022-11-20T08:48:01;101354.63;;;-0.86;nan
70053;BME280;57398;52.032;4.376;2022-11-20T08:50:30;101343.75;;;-0.78;nan
70053;BME280;57398;52.032;4.376;2022-11-20T08:53:03;101350.34;;;-0.76;nan
70053;BME280;57398;52.032;4.376;2022-11-20T08:58:03;101347.94;;;-0.68;nan
70053;BME280;57398;52.032;4.376;2022-11-20T09:00:31;101340.41;;;-0.69;nan
70053;BME280;57398;52.032;4.376;2022-11-20T09:02:59;101349.72;;;-0.58;nan
70053;BME280;57398;52.032;4.376;2022-11-20T09:05:28;101343.00;;;-0.59;nan
70053;BME280;57398;52.032;4.376;2022-11-20T09:07:56;101349.44;;;-0.55;nan
70053;BME280;57398;52.032;4.376;2022-11-20T09:10:25;101346.25;;;-0.48;nan
70053;BME280;57398;52.032;4.376;2022-11-20T09:12:53;101346.38;;;-0.39;nan
70053;BME280;57398;52.032;4.376;2022-11-20T09:15:22;101335.75;;;-0.35;nan
70053;BME280;57398;52.032;4.376;2022-11-20T09:17:50;101327.56;;;-0.29;nan
70053;BME280;57398;52.032;4.376;2022-11-20T09:20:21;101330.38;;;-0.12;nan
70053;BME280;57398;52.032;4.376;2022-11-20T09:22:49;101320.84;;;-0.10;nan
70053;BME280;57398;52.032;4.376;2022-11-20T09:25:18;101310.75;;;-0.02;nan
70053;BME280;57398;52.032;4.376;2022-11-20T09:27:47;101307.91;;;0.01;nan
70053;BME280;57398;52.032;4.376;2022-11-20T09:30:15;101288.44;;;0.00;nan
70053;BME280;57398;52.032;4.376;2022-11-20T09:32:43;101288.44;;;0.00;nan
70053;BME280;57398;52.032;4.376;2022-11-20T09:35:10;101306.56;;;0.07;nan
70053;BME280;57398;52.032;4.376;2022-11-20T09:40:06;101278.72;;;0.13;nan
70053;BME280;57398;52.032;4.376;2022-11-20T09:42:49;101250.22;;;0.08;nan
70053;BME280;57398;52.032;4.376;2022-11-20T09:45:24;101272.97;;;0.39;nan
70053;BME280;57398;52.032;4.376;2022-11-20T09:48:09;101266.50;;;0.45;nan
70053;BME280;57398;52.032;4.376;2022-11-20T09:50:43;101261.09;;;0.57;nan
70053;BME280;57398;52.032;4.376;2022-11-20T09:53:21;101245.59;;;0.59;nan
70053;BME280;57398;52.032;4.376;2022-11-20T09:55:55;101260.78;;;0.60;nan
70053;BME280;57398;52.032;4.376;2022-11-20T09:58:30;101248.38;;;0.66;nan
70053;BME280;57398;52.032;4.376;2022-11-20T10:01:05;101240.84;;;0.64;nan
70053;BME280;57398;52.032;4.376;2022-11-20T10:03:41;101232.25;;;0.65;nan
70053;BME280;57398;52.032;4.376;2022-11-20T10:06:16;101232.59;;;0.70;nan
70053;BME280;57398;52.032;4.376;2022-11-20T10:08:50;101213.34;;;0.76;nan
70053;BME280;57398;52.032;4.376;2022-11-20T10:11:32;101213.56;;;0.82;nan
70053;BME280;57398;52.032;4.376;2022-11-20T10:14:09;101206.69;;;0.83;nan
70053;BME280;57398;52.032;4.376;2022-11-20T10:19:27;101192.94;;;0.84;nan
70053;BME280;57398;52.032;4.376;2022-11-20T10:22:02;101194.41;;;0.87;nan
70053;BME280;57398;52.032;4.376;2022-11-20T10:27:31;101179.59;;;0.90;nan
70053;BME280;57398;52.032;4.376;2022-11-20T10:35:14;101177.53;;;0.94;nan
70053;BME280;57398;52.032;4.376;2022-11-20T10:37:45;101177.47;;;1.03;nan
70053;BME280;57398;52.032;4.376;2022-11-20T10:40:25;101161.16;;;1.04;nan
70053;BME280;57398;52.032;4.376;2022-11-20T10:42:56;101172.63;;;1.18;nan
70053;BME280;57398;52.032;4.376;2022-11-20T10:45:38;101155.50;;;1.19;nan
70053;BME280;57398;52.032;4.376;2022-11-20T10:48:15;101161.34;;;1.29;nan
70053;BME280;57398;52.032;4.376;2022-11-20T10:50:53;101151.56;;;1.24;nan
70053;BME280;57398;52.032;4.376;2022-11-20T10:53:38;101148.00;;;1.43;nan
70053;BME280;57398;52.032;4.376;2022-11-20T10:56:17;101143.84;;;1.42;nan
70053;BME280;57398;52.032;4.376;2022-11-20T10:58:58;101136.31;;;1.41;nan
70053;BME280;57398;52.032;4.376;2022-11-20T11:01:31;101123.25;;;1.52;nan
70053;BME280;57398;52.032;4.376;2022-11-20T11:03:58;101125.38;;;1.57;nan
70053;BME280;57398;52.032;4.376;2022-11-20T11:06:32;101128.41;;;1.60;nan
70053;BME280;57398;52.032;4.376;2022-11-20T11:09:08;101128.97;;;1.72;nan
70053;BME280;57398;52.032;4.376;2022-11-20T11:11:38;101117.81;;;1.81;nan
70053;BME280;57398;52.032;4.376;2022-11-20T11:14:06;101096.06;;;1.94;nan
70053;BME280;57398;52.032;4.376;2022-11-20T11:16:35;101109.72;;;2.02;nan
70053;BME280;57398;52.032;4.376;2022-11-20T11:19:04;101098.34;;;2.05;nan
70053;BME280;57398;52.032;4.376;2022-11-20T11:21:32;101085.72;;;2.12;nan
70053;BME280;57398;52.032;4.376;2022-11-20T11:24:01;101075.16;;;2.15;nan
70053;BME280;57398;52.032;4.376;2022-11-20T11:32:03;101049.25;;;2.34;nan
70053;BME280;57398;52.032;4.376;2022-11-20T11:34:31;101038.50;;;2.22;nan
70053;BME280;57398;52.032;4.376;2022-11-20T11:36:59;101022.13;;;2.15;nan
70053;BME280;57398;52.032;4.376;2022-11-20T11:39:31;101014.47;;;2.23;nan
70053;BME280;57398;52.032;4.376;2022-11-20T11:44:30;100995.41;;;2.18;nan
70053;BME280;57398;52.032;4.376;2022-11-20T11:47:25;101002.47;;;2.16;nan
70053;BME280;57398;52.032;4.376;2022-11-20T11:50:14;100994.41;;;2.10;nan
70053;BME280;57398;52.032;4.376;2022-11-20T11:52:46;100999.41;;;2.12;nan
70053;BME280;57398;52.032;4.376;2022-11-20T11:55:22;100989.00;;;2.22;nan
70053;BME280;57398;52.032;4.376;2022-11-20T11:57:55;100999.72;;;2.34;nan
70053;BME280;57398;52.032;4.376;2022-11-20T12:00:27;100998.28;;;2.31;nan
70053;BME280;57398;52.032;4.376;2022-11-20T12:03:06;100994.59;;;2.34;nan
70053;BME280;57398;52.032;4.376;2022-11-20T12:05:40;100994.59;;;2.25;nan
70053;BME280;57398;52.032;4.376;2022-11-20T12:08:15;100995.56;;;2.24;nan
70053;BME280;57398;52.032;4.376;2022-11-20T12:10:48;100970.09;;;2.31;nan
70053;BME280;57398;52.032;4.376;2022-11-20T12:15:50;100971.38;;;2.43;nan
70053;BME280;57398;52.032;4.376;2022-11-20T12:18:21;100978.41;;;2.49;nan
70053;BME280;57398;52.032;4.376;2022-11-20T12:21:01;100972.34;;;2.50;nan
70053;BME280;57398;52.032;4.376;2022-11-20T12:23:36;100949.59;;;2.47;nan
70053;BME280;57398;52.032;4.376;2022-11-20T12:26:16;100955.81;;;2.45;nan
70053;BME280;57398;52.032;4.376;2022-11-20T12:28:55;100947.50;;;2.51;nan
70053;BME280;57398;52.032;4.376;2022-11-20T12:31:40;100961.44;;;2.48;nan
70053;BME280;57398;52.032;4.376;2022-11-20T12:39:50;100939.00;;;2.50;nan
70053;BME280;57398;52.032;4.376;2022-11-20T12:42:33;100925.06;;;2.53;nan
70053;BME280;57398;52.032;4.376;2022-11-20T12:48:52;100923.91;;;2.56;nan
70053;BME280;57398;52.032;4.376;2022-11-20T12:51:31;100913.81;;;2.54;nan
70053;BME280;57398;52.032;4.376;2022-11-20T12:54:25;100917.22;;;2.55;nan
70053;BME280;57398;52.032;4.376;2022-11-20T12:56:59;100916.88;;;2.49;nan
70053;BME280;57398;52.032;4.376;2022-11-20T12:59:45;100903.75;;;2.53;nan
70053;BME280;57398;52.032;4.376;2022-11-20T13:02:24;100908.69;;;2.54;nan
70053;BME280;57398;52.032;4.376;2022-11-20T13:05:08;100901.19;;;2.53;nan
70053;BME280;57398;52.032;4.376;2022-11-20T13:07:43;100888.06;;;2.47;nan
70053;BME280;57398;52.032;4.376;2022-11-20T13:10:18;100894.44;;;2.51;nan
70053;BME280;57398;52.032;4.376;2022-11-20T13:12:53;100884.38;;;2.50;nan
70053;BME280;57398;52.032;4.376;2022-11-20T13:15:41;100889.16;;;2.53;nan
70053;BME280;57398;52.032;4.376;2022-11-20T13:18:12;100887.72;;;2.50;nan
70053;BME280;57398;52.032;4.376;2022-11-20T13:20:42;100875.25;;;2.47;nan
70053;BME280;57398;52.032;4.376;2022-11-20T13:23:10;100866.41;;;2.50;nan
70053;BME280;57398;52.032;4.376;2022-11-20T13:25:39;100868.34;;;2.48;nan
70053;BME280;57398;52.032;4.376;2022-11-20T13:28:28;100863.06;;;2.41;nan
70053;BME280;57398;52.032;4.376;2022-11-20T13:30:58;100859.22;;;2.45;nan
70053;BME280;57398;52.032;4.376;2022-11-20T13:33:29;100847.34;;;2.44;nan
70053;BME280;57398;52.032;4.376;2022-11-20T13:36:00;100855.53;;;2.48;nan
70053;BME280;57398;52.032;4.376;2022-11-20T13:38:39;100851.19;;;2.40;nan
70053;BME280;57398;52.032;4.376;2022-11-20T13:41:09;100849.59;;;2.39;nan
70053;BME280;57398;52.032;4.376;2022-11-20T13:43:52;100842.72;;;2.40;nan
70053;BME280;57398;52.032;4.376;2022-11-20T13:46:19;100838.72;;;2.37;nan
70053;BME280;57398;52.032;4.376;2022-11-20T13:48:51;100840.16;;;2.40;nan
70053;BME280;57398;52.032;4.376;2022-11-20T13:51:28;100835.81;;;2.40;nan
70053;BME280;57398;52.032;4.376;2022-11-20T13:54:15;100819.00;;;2.38;nan
70053;BME280;57398;52.032;4.376;2022-11-20T13:56:58;100806.53;;;2.35;nan
70053;BME280;57398;52.032;4.376;2022-11-20T13:59:40;100797.72;;;2.29;nan
70053;BME280;57398;52.032;4.376;2022-11-20T14:02:15;100789.22;;;2.28;nan
70053;BME280;57398;52.032;4.376;2022-11-20T14:04:47;100769.50;;;2.29;nan
70053;BME280;57398;52.032;4.376;2022-11-20T14:07:16;100773.56;;;2.23;nan
70053;BME280;57398;52.032;4.376;2022-11-20T14:12:20;100752.25;;;2.23;nan
70053;BME280;57398;52.032;4.376;2022-11-20T14:14:49;100749.34;;;2.26;nan
70053;BME280;57398;52.032;4.376;2022-11-20T14:19:47;100743.88;;;2.29;nan
70053;BME280;57398;52.032;4.376;2022-11-20T14:24:48;100737.31;;;2.35;nan
70053;BME280;57398;52.032;4.376;2022-11-20T14:27:19;100739.72;;;2.36;nan
70053;BME280;57398;52.032;4.376;2022-11-20T14:29:49;100744.03;;;2.36;nan
70053;BME280;57398;52.032;4.376;2022-11-20T14:34:47;100730.75;;;2.32;nan
70053;BME280;57398;52.032;4.376;2022-11-20T14:37:20;100719.88;;;2.30;nan
70053;BME280;57398;52.032;4.376;2022-11-20T14:39:50;100719.56;;;2.25;nan
70053;BME280;57398;52.032;4.376;2022-11-20T14:42:22;100714.91;;;2.28;nan
70053;BME280;57398;52.032;4.376;2022-11-20T14:44:52;100701.78;;;2.23;nan
70053;BME280;57398;52.032;4.376;2022-11-20T14:47:25;100710.63;;;2.21;nan
70053;BME280;57398;52.032;4.376;2022-11-20T14:49:54;100703.72;;;2.21;nan
70053;BME280;57398;52.032;4.376;2022-11-20T14:52:24;100690.28;;;2.19;nan
70053;BME280;57398;52.032;4.376;2022-11-20T14:54:53;100695.53;;;2.26;nan
70053;BME280;57398;52.032;4.376;2022-11-20T14:57:25;100682.72;;;2.26;nan
70053;BME280;57398;52.032;4.376;2022-11-20T15:00:17;100676.97;;;2.24;nan
70053;BME280;57398;52.032;4.376;2022-11-20T15:02:47;100674.06;;;2.27;nan
70053;BME280;57398;52.032;4.376;2022-11-20T15:07:46;100665.56;;;2.26;nan
70053;BME280;57398;52.032;4.376;2022-11-20T15:10:21;100665.41;;;2.28;nan
70053;BME280;57398;52.032;4.376;2022-11-20T15:12:52;100663.63;;;2.28;nan
70053;BME280;57398;52.032;4.376;2022-11-20T15:15:23;100651.63;;;2.29;nan
70053;BME280;57398;52.032;4.376;2022-11-20T15:17:53;100648.88;;;2.30;nan